Time;durP1;ratioP1;P1;durP2;ratioP2;P2;SDS_P1;SDS_P2;PMS_P1;PMS_P2;Temp;Humidity;BMP_temperature;BMP_pressure;BME280_temperature;BME280_humidity;BME280_pressure;Samples;Min_cycle;Max_cycle;Signal;HPM_P1;HPM_P2
2023/05/21 00:00:58;;;;;;;0.10;0.10;;;11.80;99.90;;;;;;5049360;28;20437;-87
2023/05/21 00:03:25;;;;;;;0.10;0.10;;;11.70;99.90;;;;;;5051006;28;20248;-88
2023/05/21 00:05:51;;;;;;;0.10;0.10;;;11.70;99.90;;;;;;5069094;28;20178;-88
2023/05/21 00:08:17;;;;;;;0.00;0.00;;;11.70;99.90;;;;;;5050608;28;20509;-90
2023/05/21 00:10:42;;;;;;;0.00;0.00;;;11.70;99.90;;;;;;5049445;28;20220;-89
2023/05/21 00:13:09;;;;;;;0.10;0.10;;;11.70;99.90;;;;;;5050763;28;20224;-89
2023/05/21 00:15:35;;;;;;;0.00;0.00;;;11.80;99.90;;;;;;5067875;28;20186;-89
2023/05/21 00:18:00;;;;;;;0.10;0.10;;;11.80;99.90;;;;;;5063265;28;20437;-90
2023/05/21 00:20:28;;;;;;;0.10;0.10;;;11.80;99.90;;;;;;5051160;28;20497;-87
2023/05/21 00:22:53;;;;;;;0.10;0.10;;;11.80;99.90;;;;;;5064528;28;20174;-89
2023/05/21 00:25:19;;;;;;;0.10;0.10;;;11.80;99.90;;;;;;5065915;28;20528;-88
2023/05/21 00:27:45;;;;;;;0.10;0.10;;;11.80;99.90;;;;;;5071785;28;20186;-90
2023/05/21 00:30:11;;;;;;;0.10;0.10;;;11.80;99.90;;;;;;5066169;28;20453;-88
2023/05/21 00:32:36;;;;;;;0.10;0.10;;;11.80;99.90;;;;;;5063341;28;20190;-88
2023/05/21 00:35:02;;;;;;;0.10;0.10;;;11.70;99.90;;;;;;5068292;28;20535;-89
2023/05/21 00:37:32;;;;;;;0.10;0.10;;;11.70;99.90;;;;;;5061878;28;20247;-88
2023/05/21 00:39:59;;;;;;;0.07;0.07;;;11.70;99.90;;;;;;5066736;28;20179;-89
2023/05/21 00:42:26;;;;;;;0.10;0.10;;;11.60;99.90;;;;;;5067096;28;20436;-89
2023/05/21 00:44:53;;;;;;;0.03;0.03;;;11.60;99.90;;;;;;5050094;28;20507;-89
2023/05/21 00:47:20;;;;;;;0.10;0.10;;;11.60;99.90;;;;;;5057902;28;20436;-88
2023/05/21 00:49:47;;;;;;;0.10;0.10;;;11.60;99.90;;;;;;5089741;28;20453;-89
2023/05/21 00:52:13;;;;;;;0.00;0.00;;;11.60;99.90;;;;;;5058591;28;20963;-88
2023/05/21 00:54:40;;;;;;;0.03;0.03;;;11.60;99.90;;;;;;5066471;28;20444;-88
2023/05/21 00:57:05;;;;;;;0.10;0.10;;;11.50;99.90;;;;;;5072825;28;21037;-88
2023/05/21 00:59:32;;;;;;;0.00;0.00;;;11.50;99.90;;;;;;5073683;28;20439;-89
2023/05/21 01:02:02;;;;;;;0.10;0.10;;;11.60;99.90;;;;;;5071675;28;20186;-89
2023/05/21 01:04:28;;;;;;;0.10;0.10;;;11.40;99.90;;;;;;5054582;28;20498;-89
2023/05/21 01:06:55;;;;;;;0.10;0.10;;;11.50;99.90;;;;;;5072394;28;20928;-88
2023/05/21 01:09:20;;;;;;;0.10;0.10;;;11.50;99.90;;;;;;5070871;28;20455;-89
2023/05/21 01:11:49;;;;;;;0.10;0.10;;;11.50;99.90;;;;;;5072067;28;20432;-88
2023/05/21 01:14:16;;;;;;;0.10;0.10;;;11.50;99.90;;;;;;5068214;28;20192;-89
2023/05/21 01:16:47;;;;;;;0.10;0.10;;;11.50;99.90;;;;;;5051756;28;20472;-88
2023/05/21 01:19:18;;;;;;;0.10;0.10;;;11.40;99.90;;;;;;5067085;28;20962;-88
2023/05/21 01:21:48;;;;;;;0.10;0.10;;;11.40;99.90;;;;;;5055355;28;20963;-88
2023/05/21 01:24:14;;;;;;;0.10;0.10;;;11.40;99.90;;;;;;5070217;28;21295;-88
2023/05/21 01:26:41;;;;;;;0.10;0.10;;;11.30;99.90;;;;;;5071036;28;20439;-89
2023/05/21 01:29:11;;;;;;;0.10;0.10;;;11.30;99.90;;;;;;5068424;28;20483;-88
2023/05/21 01:31:51;;;;;;;0.00;0.00;;;11.40;99.90;;;;;;5071069;28;20432;-88
2023/05/21 01:34:22;;;;;;;0.10;0.10;;;11.40;99.90;;;;;;5072232;28;20436;-89
2023/05/21 01:36:56;;;;;;;0.10;0.10;;;11.30;99.90;;;;;;5077640;28;20444;-89
2023/05/21 01:39:31;;;;;;;0.00;0.00;;;11.40;99.90;;;;;;5069325;28;21004;-88
2023/05/21 01:41:57;;;;;;;0.07;0.07;;;11.40;99.90;;;;;;5084093;28;20477;-88
2023/05/21 01:44:25;;;;;;;0.07;0.07;;;11.40;99.90;;;;;;5072675;28;20479;-89
2023/05/21 01:46:52;;;;;;;0.03;0.03;;;11.40;99.90;;;;;;5082441;28;20508;-88
2023/05/21 01:49:18;;;;;;;0.10;0.10;;;11.40;99.90;;;;;;5080393;28;20449;-88
2023/05/21 01:51:44;;;;;;;0.07;0.07;;;11.40;99.90;;;;;;5080883;28;20478;-87
2023/05/21 01:54:10;;;;;;;0.07;0.07;;;11.50;99.90;;;;;;5072038;28;20455;-87
2023/05/21 01:56:35;;;;;;;0.10;0.10;;;11.40;99.90;;;;;;5086228;28;20447;-88
2023/05/21 01:59:01;;;;;;;0.03;0.03;;;11.40;99.90;;;;;;5077612;28;20243;-89
2023/05/21 02:01:28;;;;;;;0.10;0.10;;;11.40;99.90;;;;;;5069934;28;20193;-88
2023/05/21 02:03:55;;;;;;;0.07;0.07;;;11.40;99.90;;;;;;5088013;28;20225;-88
2023/05/21 02:06:21;;;;;;;0.03;0.03;;;11.30;99.90;;;;;;5071057;28;20489;-88
2023/05/21 02:08:47;;;;;;;0.10;0.10;;;11.30;99.90;;;;;;5072743;28;20440;-88
2023/05/21 02:11:12;;;;;;;0.10;0.10;;;11.30;99.90;;;;;;5069808;28;20432;-88
2023/05/21 02:13:41;;;;;;;0.10;0.10;;;11.20;99.90;;;;;;5077856;28;20174;-88
2023/05/21 02:16:10;;;;;;;0.07;0.07;;;11.30;99.90;;;;;;5080814;28;20191;-88
2023/05/21 02:18:36;;;;;;;0.10;0.10;;;11.20;99.90;;;;;;5071030;28;20955;-88
2023/05/21 02:21:02;;;;;;;0.10;0.10;;;11.30;99.90;;;;;;5078377;28;20450;-88
2023/05/21 02:23:28;;;;;;;0.07;0.07;;;11.30;99.90;;;;;;5080633;28;22429;-87
2023/05/21 02:25:53;;;;;;;0.10;0.10;;;11.20;99.90;;;;;;5076492;28;20280;-87
2023/05/21 02:28:20;;;;;;;0.10;0.10;;;11.10;99.90;;;;;;5073706;28;20181;-88
2023/05/21 02:30:45;;;;;;;0.10;0.10;;;11.10;99.90;;;;;;5085067;28;20212;-88
2023/05/21 02:33:13;;;;;;;0.00;0.00;;;11.20;99.90;;;;;;5068082;28;20559;-88
2023/05/21 02:35:38;;;;;;;0.00;0.00;;;11.10;99.90;;;;;;5053274;28;20274;-88
2023/05/21 02:38:04;;;;;;;0.10;0.10;;;11.10;99.90;;;;;;5052981;28;20535;-88
2023/05/21 02:40:31;;;;;;;0.10;0.10;;;11.10;99.90;;;;;;5068327;28;20217;-87
2023/05/21 02:42:57;;;;;;;0.10;0.10;;;11.00;99.90;;;;;;5063584;28;20205;-88
2023/05/21 02:45:22;;;;;;;0.10;0.10;;;11.00;99.90;;;;;;5069016;28;21355;-87
2023/05/21 02:47:48;;;;;;;0.10;0.10;;;11.10;99.90;;;;;;5067534;28;20232;-88
2023/05/21 02:50:13;;;;;;;0.10;0.10;;;11.10;99.90;;;;;;5068515;28;20269;-89
2023/05/21 02:52:40;;;;;;;0.10;0.10;;;11.10;99.90;;;;;;5069144;28;20277;-87
2023/05/21 02:55:06;;;;;;;0.10;0.10;;;11.10;99.90;;;;;;5068996;28;20178;-89
2023/05/21 02:57:31;;;;;;;0.10;0.10;;;11.20;99.90;;;;;;5071645;28;20960;-87
2023/05/21 02:59:57;;;;;;;0.00;0.00;;;11.20;99.90;;;;;;5069173;28;20481;-89
2023/05/21 03:02:22;;;;;;;0.10;0.10;;;11.20;99.90;;;;;;5066088;28;20182;-89
2023/05/21 03:04:49;;;;;;;0.10;0.10;;;11.20;99.90;;;;;;5077189;28;20261;-89
2023/05/21 03:07:17;;;;;;;0.10;0.10;;;11.20;99.90;;;;;;5074567;28;20201;-89
2023/05/21 03:09:43;;;;;;;0.10;0.10;;;11.20;99.90;;;;;;5073511;28;20792;-89
2023/05/21 03:12:09;;;;;;;0.10;0.10;;;11.20;99.90;;;;;;5052751;28;20436;-89
2023/05/21 03:14:35;;;;;;;0.03;0.03;;;11.20;99.90;;;;;;5054687;28;20441;-89
2023/05/21 03:17:04;;;;;;;0.10;0.10;;;11.20;99.90;;;;;;5050650;28;20447;-89
2023/05/21 03:19:34;;;;;;;0.10;0.10;;;11.20;99.90;;;;;;5079395;28;20447;-89
2023/05/21 03:22:00;;;;;;;0.07;0.07;;;11.30;99.90;;;;;;5067779;28;21043;-90
2023/05/21 03:24:29;;;;;;;0.10;0.10;;;11.10;99.90;;;;;;5048904;28;20476;-89
2023/05/21 03:26:54;;;;;;;0.00;0.00;;;11.30;99.90;;;;;;5082173;28;20447;-90
2023/05/21 03:29:20;;;;;;;0.03;0.03;;;11.30;99.90;;;;;;5053295;28;20448;-90
2023/05/21 03:31:46;;;;;;;0.10;0.10;;;11.20;99.90;;;;;;5069028;28;20235;-89
2023/05/21 03:34:11;;;;;;;0.10;0.10;;;11.30;99.90;;;;;;5072437;28;20444;-89
2023/05/21 03:36:37;;;;;;;0.10;0.10;;;11.20;99.90;;;;;;5068547;28;20185;-90
2023/05/21 03:39:03;;;;;;;0.00;0.00;;;11.30;99.90;;;;;;5052383;28;20190;-88
2023/05/21 03:41:28;;;;;;;0.10;0.10;;;11.30;99.90;;;;;;5068831;28;20181;-88
2023/05/21 03:43:54;;;;;;;0.10;0.10;;;11.30;99.90;;;;;;5071322;28;20491;-90
2023/05/21 03:46:20;;;;;;;0.07;0.07;;;11.30;99.90;;;;;;5052147;28;20190;-89
2023/05/21 03:48:45;;;;;;;0.10;0.10;;;11.40;99.90;;;;;;5050091;28;20182;-89
2023/05/21 03:51:12;;;;;;;0.10;0.10;;;11.30;99.90;;;;;;5051740;28;20702;-90
2023/05/21 03:53:37;;;;;;;0.10;0.10;;;11.40;99.90;;;;;;5069846;28;20173;-89
2023/05/21 03:56:03;;;;;;;0.10;0.10;;;11.30;99.90;;;;;;5064491;28;20435;-88
2023/05/21 03:58:29;;;;;;;0.07;0.07;;;11.40;99.90;;;;;;5069749;28;20200;-88
2023/05/21 04:00:55;;;;;;;0.00;0.00;;;11.20;99.90;;;;;;5049437;28;20198;-88
2023/05/21 04:03:20;;;;;;;0.10;0.10;;;11.30;99.90;;;;;;5068279;28;20536;-88
2023/05/21 04:05:46;;;;;;;0.10;0.10;;;11.20;99.90;;;;;;5067810;28;20190;-88
2023/05/21 04:08:12;;;;;;;0.10;0.10;;;11.20;99.90;;;;;;5054218;28;20273;-87
2023/05/21 04:10:37;;;;;;;0.10;0.10;;;11.30;99.90;;;;;;5069413;28;20213;-88
2023/05/21 04:13:03;;;;;;;0.10;0.10;;;11.30;99.90;;;;;;5067209;28;20482;-87
2023/05/21 04:15:28;;;;;;;0.07;0.07;;;11.40;99.90;;;;;;5064688;28;20758;-88
2023/05/21 04:17:54;;;;;;;0.10;0.10;;;11.30;99.90;;;;;;5051073;28;20193;-87
2023/05/21 04:20:20;;;;;;;0.10;0.10;;;11.30;99.90;;;;;;5072369;28;20197;-87
2023/05/21 04:22:46;;;;;;;0.03;0.03;;;11.40;99.90;;;;;;5058589;28;20182;-87
2023/05/21 04:25:11;;;;;;;0.10;0.10;;;11.40;99.90;;;;;;5071746;28;20522;-87
2023/05/21 04:27:37;;;;;;;0.10;0.10;;;11.40;99.90;;;;;;5073099;28;20221;-87
2023/05/21 04:30:03;;;;;;;0.03;0.03;;;11.50;99.90;;;;;;5069038;28;20588;-87
2023/05/21 04:32:33;;;;;;;0.10;0.10;;;11.50;99.90;;;;;;5081374;28;20243;-87
2023/05/21 04:35:03;;;;;;;0.10;0.10;;;11.50;99.90;;;;;;5050791;28;20486;-87
2023/05/21 04:37:30;;;;;;;0.10;0.10;;;11.50;99.90;;;;;;5073897;28;20499;-87
2023/05/21 04:39:56;;;;;;;0.10;0.10;;;11.60;99.90;;;;;;5072706;28;20467;-87
2023/05/21 04:42:22;;;;;;;0.00;0.00;;;11.70;99.90;;;;;;5063662;28;20447;-88
2023/05/21 04:44:49;;;;;;;0.10;0.10;;;11.70;99.90;;;;;;5072998;28;20529;-86
2023/05/21 04:47:15;;;;;;;0.10;0.10;;;11.70;99.90;;;;;;5075703;28;20947;-86
2023/05/21 04:49:40;;;;;;;0.10;0.10;;;11.80;99.90;;;;;;5077730;28;20448;-88
2023/05/21 04:52:07;;;;;;;0.00;0.00;;;11.90;99.90;;;;;;5048774;28;20506;-87
2023/05/21 04:54:32;;;;;;;0.10;0.10;;;11.80;99.90;;;;;;5071905;28;20192;-87
2023/05/21 04:56:58;;;;;;;0.10;0.10;;;11.80;99.90;;;;;;5066248;28;20439;-88
2023/05/21 04:59:23;;;;;;;0.10;0.10;;;11.90;99.90;;;;;;5052441;28;20190;-87
2023/05/21 05:01:49;;;;;;;0.10;0.10;;;11.90;99.90;;;;;;5051435;28;20251;-87
2023/05/21 05:04:15;;;;;;;0.10;0.10;;;12.00;99.90;;;;;;5070050;28;20209;-87
2023/05/21 05:06:40;;;;;;;0.10;0.10;;;12.00;99.90;;;;;;5048792;28;20210;-87
2023/05/21 05:09:05;;;;;;;0.10;0.10;;;12.00;99.90;;;;;;5069527;28;20194;-87
2023/05/21 05:11:31;;;;;;;0.10;0.10;;;12.20;99.90;;;;;;5072465;28;20269;-88
2023/05/21 05:13:57;;;;;;;0.10;0.10;;;12.20;99.90;;;;;;5076013;28;20181;-89
2023/05/21 05:16:24;;;;;;;0.10;0.10;;;12.30;99.90;;;;;;5067945;28;20197;-87
2023/05/21 05:18:51;;;;;;;0.00;0.00;;;12.30;99.90;;;;;;5053454;28;20285;-87
2023/05/21 05:21:17;;;;;;;0.03;0.03;;;12.40;99.90;;;;;;5069612;28;20440;-86
2023/05/21 05:23:42;;;;;;;0.10;0.10;;;12.40;99.90;;;;;;5072190;28;20494;-86
2023/05/21 05:26:09;;;;;;;0.10;0.10;;;12.50;99.90;;;;;;5072930;28;20181;-86
2023/05/21 05:28:35;;;;;;;0.10;0.10;;;12.60;99.90;;;;;;5065961;28;20661;-86
2023/05/21 05:31:00;;;;;;;0.10;0.10;;;12.70;99.90;;;;;;5047636;28;20423;-87
2023/05/21 05:33:26;;;;;;;0.10;0.10;;;12.60;99.90;;;;;;5070372;28;20313;-87
2023/05/21 05:35:51;;;;;;;0.10;0.10;;;12.70;99.90;;;;;;5067110;28;20194;-88
2023/05/21 05:38:17;;;;;;;0.00;0.00;;;12.70;99.90;;;;;;5079811;28;20188;-89
2023/05/21 05:40:43;;;;;;;0.07;0.07;;;12.80;99.90;;;;;;5070069;28;20198;-88
2023/05/21 05:43:08;;;;;;;0.10;0.10;;;12.90;99.90;;;;;;5049695;28;20186;-89
2023/05/21 05:45:34;;;;;;;0.07;0.07;;;12.90;99.90;;;;;;5073064;28;20192;-87
2023/05/21 05:47:59;;;;;;;0.10;0.10;;;12.90;99.90;;;;;;5069468;28;20626;-88
2023/05/21 05:50:25;;;;;;;0.03;0.03;;;13.00;99.90;;;;;;5069572;28;20234;-89
2023/05/21 05:52:51;;;;;;;0.10;0.10;;;13.00;99.90;;;;;;5069898;28;20178;-89
2023/05/21 05:55:16;;;;;;;0.10;0.10;;;13.10;99.90;;;;;;5090455;28;20430;-87
2023/05/21 05:57:42;;;;;;;0.10;0.10;;;13.10;99.90;;;;;;5081675;28;20189;-89
2023/05/21 06:00:09;;;;;;;0.10;0.10;;;13.10;99.90;;;;;;5081106;28;20610;-87
2023/05/21 06:02:35;;;;;;;0.00;0.00;;;13.20;99.90;;;;;;5070727;28;20186;-87
2023/05/21 06:05:01;;;;;;;0.10;0.10;;;13.20;99.90;;;;;;5068863;28;20566;-88
2023/05/21 06:07:27;;;;;;;0.10;0.10;;;13.30;99.90;;;;;;5050780;28;20776;-87
2023/05/21 06:09:52;;;;;;;0.07;0.07;;;13.20;99.90;;;;;;5066310;28;20475;-88
2023/05/21 06:12:18;;;;;;;0.10;0.10;;;13.30;99.90;;;;;;5071334;28;20192;-88
2023/05/21 06:14:45;;;;;;;0.00;0.00;;;13.40;99.90;;;;;;5071010;28;20770;-89
2023/05/21 06:17:10;;;;;;;0.00;0.00;;;13.40;99.90;;;;;;5065037;28;20182;-88
2023/05/21 06:19:36;;;;;;;0.00;0.00;;;13.50;99.90;;;;;;5067685;28;20444;-88
2023/05/21 06:22:01;;;;;;;0.00;0.00;;;13.70;99.90;;;;;;5071758;28;20280;-87
2023/05/21 06:24:27;;;;;;;0.00;0.00;;;13.70;99.90;;;;;;5076090;28;20220;-88
2023/05/21 06:26:52;;;;;;;0.07;0.07;;;13.80;99.90;;;;;;5066512;28;20182;-87
2023/05/21 06:29:18;;;;;;;0.00;0.00;;;13.80;99.90;;;;;;5070614;28;20201;-87
2023/05/21 06:31:43;;;;;;;0.00;0.00;;;13.70;99.90;;;;;;5066317;28;20682;-86
2023/05/21 06:34:10;;;;;;;0.00;0.00;;;13.80;99.90;;;;;;5048149;28;20202;-83
2023/05/21 06:36:36;;;;;;;0.00;0.00;;;14.00;99.90;;;;;;5066913;28;20638;-87
2023/05/21 06:39:02;;;;;;;0.00;0.00;;;14.00;99.90;;;;;;5067072;28;20452;-87
2023/05/21 06:41:28;;;;;;;0.00;0.00;;;14.10;99.90;;;;;;5051633;28;20186;-91
2023/05/21 06:43:53;;;;;;;0.03;0.03;;;14.20;99.90;;;;;;5070475;28;20590;-91
2023/05/21 06:46:19;;;;;;;0.00;0.00;;;14.30;99.90;;;;;;5052537;28;20186;-89
2023/05/21 06:48:47;;;;;;;0.00;0.00;;;14.20;99.90;;;;;;5070556;28;20662;-88
2023/05/21 06:51:12;;;;;;;0.00;0.00;;;14.10;99.90;;;;;;5067762;28;20997;-86
2023/05/21 06:53:38;;;;;;;0.00;0.00;;;14.30;99.90;;;;;;5067101;28;20469;-86
2023/05/21 06:56:04;;;;;;;0.00;0.00;;;14.40;99.90;;;;;;5057756;28;20567;-84
2023/05/21 06:58:30;;;;;;;0.00;0.00;;;14.30;99.90;;;;;;5067105;28;20649;-85
2023/05/21 07:01:02;;;;;;;0.00;0.00;;;14.40;99.90;;;;;;5067433;28;20544;-85
2023/05/21 07:03:28;;;;;;;0.00;0.00;;;14.40;99.90;;;;;;5066461;28;20518;-83
2023/05/21 07:05:53;;;;;;;0.00;0.00;;;14.30;99.90;;;;;;5050192;28;20472;-82
2023/05/21 07:08:19;;;;;;;0.00;0.00;;;14.40;99.90;;;;;;5052822;28;20198;-85
2023/05/21 07:10:45;;;;;;;0.00;0.00;;;14.50;99.90;;;;;;5066740;28;20220;-85
2023/05/21 07:13:11;;;;;;;0.00;0.00;;;14.60;99.90;;;;;;5068614;28;20185;-83
2023/05/21 07:15:37;;;;;;;0.00;0.00;;;14.60;99.90;;;;;;5055632;28;20450;-83
2023/05/21 07:18:02;;;;;;;0.00;0.00;;;14.70;99.90;;;;;;5052102;28;20806;-83
2023/05/21 07:20:28;;;;;;;0.00;0.00;;;14.70;99.90;;;;;;5051533;28;20894;-84
2023/05/21 07:22:54;;;;;;;0.00;0.00;;;14.70;99.90;;;;;;5071386;28;20191;-83
2023/05/21 07:25:19;;;;;;;0.00;0.00;;;14.80;99.90;;;;;;5063321;28;21130;-83
2023/05/21 07:27:46;;;;;;;0.00;0.00;;;15.00;99.90;;;;;;5055669;28;20206;-83
2023/05/21 07:30:13;;;;;;;0.00;0.00;;;14.90;99.90;;;;;;5076790;28;20443;-83
2023/05/21 07:32:38;;;;;;;0.00;0.00;;;15.00;99.90;;;;;;5052036;28;20556;-83
2023/05/21 07:35:04;;;;;;;0.00;0.00;;;14.90;99.90;;;;;;5080949;28;20439;-82
2023/05/21 07:37:30;;;;;;;0.00;0.00;;;15.00;99.90;;;;;;5073159;28;20282;-83
2023/05/21 07:39:57;;;;;;;0.00;0.00;;;15.00;99.90;;;;;;5072112;28;20446;-85
2023/05/21 07:42:23;;;;;;;0.00;0.00;;;15.10;99.90;;;;;;5061183;28;20182;-86
2023/05/21 07:44:48;;;;;;;0.00;0.00;;;15.30;99.90;;;;;;5078324;28;20494;-86
2023/05/21 07:47:14;;;;;;;0.00;0.00;;;15.50;99.90;;;;;;5064934;28;20193;-85
2023/05/21 07:49:40;;;;;;;0.00;0.00;;;15.40;99.90;;;;;;5064275;28;20453;-84
2023/05/21 07:52:05;;;;;;;0.00;0.00;;;15.40;99.90;;;;;;5068899;28;20991;-85
2023/05/21 07:54:31;;;;;;;0.00;0.00;;;15.50;99.90;;;;;;5048751;28;20858;-84
2023/05/21 07:56:56;;;;;;;0.00;0.00;;;15.50;99.90;;;;;;5065323;28;20185;-85
2023/05/21 07:59:22;;;;;;;0.00;0.00;;;15.70;99.90;;;;;;5063035;28;20189;-85
2023/05/21 08:01:48;;;;;;;0.00;0.00;;;15.70;99.90;;;;;;5066108;28;20233;-85
2023/05/21 08:04:13;;;;;;;0.00;0.00;;;15.90;99.90;;;;;;5062911;28;20210;-85
2023/05/21 08:06:39;;;;;;;0.00;0.00;;;16.00;99.90;;;;;;5068848;28;20259;-84
2023/05/21 08:09:05;;;;;;;0.00;0.00;;;16.00;99.90;;;;;;5068553;28;20236;-84
2023/05/21 08:11:30;;;;;;;0.00;0.00;;;15.90;99.90;;;;;;5065702;28;20186;-84
2023/05/21 08:13:56;;;;;;;0.00;0.00;;;16.00;99.90;;;;;;5051097;28;20536;-85
2023/05/21 08:16:22;;;;;;;0.00;0.00;;;16.00;99.90;;;;;;5068343;28;20181;-85
2023/05/21 08:18:48;;;;;;;0.00;0.00;;;16.20;99.90;;;;;;5051466;28;20174;-85
2023/05/21 08:21:13;;;;;;;0.00;0.00;;;16.40;99.90;;;;;;5051748;28;20782;-85
2023/05/21 08:23:39;;;;;;;0.00;0.00;;;16.60;99.90;;;;;;5069648;28;20456;-84
2023/05/21 08:26:05;;;;;;;0.00;0.00;;;16.70;99.90;;;;;;5051550;28;20209;-85
2023/05/21 08:28:31;;;;;;;0.00;0.00;;;16.80;99.90;;;;;;5068285;28;20185;-85
2023/05/21 08:30:56;;;;;;;0.00;0.00;;;17.20;99.90;;;;;;5059483;28;20441;-85
2023/05/21 08:33:22;;;;;;;0.00;0.00;;;16.90;99.90;;;;;;5053523;28;20182;-85
2023/05/21 08:35:47;;;;;;;0.00;0.00;;;17.10;99.90;;;;;;5068832;28;20171;-85
2023/05/21 08:38:15;;;;;;;0.00;0.00;;;16.80;99.90;;;;;;5069284;28;20182;-85
2023/05/21 08:40:41;;;;;;;0.00;0.00;;;17.00;99.90;;;;;;5066433;28;20690;-85
2023/05/21 08:43:11;;;;;;;0.00;0.00;;;17.00;99.90;;;;;;5063247;28;20520;-85
2023/05/21 08:45:41;;;;;;;0.00;0.00;;;17.00;99.90;;;;;;5067117;28;20807;-83
2023/05/21 08:48:09;;;;;;;0.00;0.00;;;16.80;99.90;;;;;;5064951;28;20445;-84
2023/05/21 08:50:34;;;;;;;0.00;0.00;;;17.00;99.90;;;;;;5053831;28;20471;-83
2023/05/21 08:53:00;;;;;;;0.00;0.00;;;17.10;99.90;;;;;;5072121;28;20444;-83
2023/05/21 08:55:26;;;;;;;0.00;0.00;;;17.20;99.90;;;;;;5072382;28;20217;-83
2023/05/21 08:57:53;;;;;;;0.00;0.00;;;17.20;99.90;;;;;;5076222;28;20475;-83
2023/05/21 09:00:19;;;;;;;0.00;0.00;;;17.30;99.90;;;;;;5070674;28;20448;-83
2023/05/21 09:02:45;;;;;;;0.00;0.00;;;17.30;99.90;;;;;;5067386;28;20924;-84
2023/05/21 09:05:11;;;;;;;0.00;0.00;;;17.40;99.90;;;;;;5064732;28;20487;-84
2023/05/21 09:07:43;;;;;;;0.00;0.00;;;17.40;99.90;;;;;;5050204;28;20194;-84
2023/05/21 09:10:12;;;;;;;0.00;0.00;;;17.60;99.90;;;;;;5050513;28;21232;-85
2023/05/21 09:12:38;;;;;;;0.00;0.00;;;17.80;99.90;;;;;;5051982;28;20444;-85
2023/05/21 09:15:04;;;;;;;0.00;0.00;;;17.80;99.90;;;;;;5072821;28;20522;-85
2023/05/21 09:17:29;;;;;;;0.00;0.00;;;17.90;99.90;;;;;;5080301;28;20196;-84
2023/05/21 09:20:12;;;;;;;0.00;0.00;;;17.90;99.90;;;;;;5078638;28;20858;-85
2023/05/21 09:22:48;;;;;;;0.00;0.00;;;18.10;99.90;;;;;;5072242;28;20188;-84
2023/05/21 09:25:20;;;;;;;0.00;0.00;;;17.90;99.90;;;;;;5050596;28;20564;-85
2023/05/21 09:27:46;;;;;;;0.00;0.00;;;18.00;99.90;;;;;;5054271;28;20447;-84
2023/05/21 09:30:16;;;;;;;0.00;0.00;;;17.70;99.90;;;;;;5067478;28;20455;-85
2023/05/21 09:32:43;;;;;;;0.00;0.00;;;17.90;99.90;;;;;;5050028;28;20259;-85
2023/05/21 09:35:10;;;;;;;0.00;0.00;;;18.00;99.90;;;;;;5080183;28;20800;-84
2023/05/21 09:37:47;;;;;;;0.00;0.00;;;17.90;99.90;;;;;;5083335;28;20432;-86
2023/05/21 09:40:15;;;;;;;0.00;0.00;;;17.90;99.90;;;;;;5085736;28;20502;-85
2023/05/21 09:42:46;;;;;;;0.00;0.00;;;17.80;99.90;;;;;;5074638;28;20427;-85
2023/05/21 09:45:12;;;;;;;0.00;0.00;;;17.90;99.90;;;;;;5069227;28;20587;-85
2023/05/21 09:47:43;;;;;;;0.00;0.00;;;17.80;99.90;;;;;;5070028;28;20440;-85
2023/05/21 09:50:13;;;;;;;0.00;0.00;;;17.80;99.90;;;;;;5066716;28;20196;-85
2023/05/21 09:52:38;;;;;;;0.00;0.00;;;17.90;99.90;;;;;;5069755;28;20940;-85
2023/05/21 09:55:13;;;;;;;0.00;0.00;;;18.00;99.90;;;;;;5074112;28;20498;-86
2023/05/21 09:57:45;;;;;;;0.00;0.00;;;18.00;99.90;;;;;;5069844;28;20182;-85
2023/05/21 10:00:21;;;;;;;0.00;0.00;;;17.90;99.90;;;;;;5069890;28;20424;-85
2023/05/21 10:02:48;;;;;;;0.00;0.00;;;17.90;99.90;;;;;;5069411;28;20431;-85
2023/05/21 10:05:15;;;;;;;0.00;0.00;;;18.00;99.90;;;;;;5058006;28;20481;-86
2023/05/21 10:07:44;;;;;;;0.00;0.00;;;18.00;99.90;;;;;;5079726;28;20443;-87
2023/05/21 10:10:13;;;;;;;0.00;0.00;;;18.30;99.90;;;;;;5077824;28;20575;-87
2023/05/21 10:12:43;;;;;;;0.00;0.00;;;18.60;99.90;;;;;;5070883;28;20481;-87
2023/05/21 10:15:13;;;;;;;0.00;0.00;;;18.80;99.90;;;;;;5066336;28;20467;-85
2023/05/21 10:17:39;;;;;;;0.00;0.00;;;18.90;99.90;;;;;;5087019;28;20805;-86
2023/05/21 10:20:09;;;;;;;0.00;0.00;;;19.10;99.90;;;;;;5070421;28;20521;-86
2023/05/21 10:22:36;;;;;;;0.00;0.00;;;19.60;99.90;;;;;;5075725;28;20530;-90
2023/05/21 10:25:02;;;;;;;0.00;0.00;;;19.90;99.90;;;;;;5067790;28;20480;-90
2023/05/21 10:27:29;;;;;;;0.00;0.00;;;19.90;99.90;;;;;;5070632;28;20459;-89
2023/05/21 10:29:56;;;;;;;0.00;0.00;;;19.80;99.90;;;;;;5068260;28;20456;-89
2023/05/21 10:32:22;;;;;;;0.00;0.00;;;19.90;99.90;;;;;;5067007;28;20432;-89
2023/05/21 10:34:50;;;;;;;0.00;0.00;;;20.10;99.90;;;;;;5070047;28;20479;-90
2023/05/21 10:37:16;;;;;;;0.00;0.00;;;20.20;99.90;;;;;;5060744;28;20467;-88
2023/05/21 10:39:44;;;;;;;0.00;0.00;;;20.20;99.90;;;;;;5068503;28;20471;-88
2023/05/21 10:42:28;;;;;;;0.00;0.00;;;20.20;99.90;;;;;;5066964;28;21163;-90
2023/05/21 10:45:25;;;;;;;0.00;0.00;;;20.20;99.90;;;;;;5048619;28;20994;-89
2023/05/21 10:48:22;;;;;;;0.00;0.00;;;20.60;99.90;;;;;;5077588;28;20448;-89
2023/05/21 10:51:06;;;;;;;0.00;0.00;;;20.50;99.90;;;;;;5070880;28;20479;-90
2023/05/21 10:54:01;;;;;;;0.00;0.00;;;20.60;99.90;;;;;;5070623;28;20879;-91
2023/05/21 10:56:43;;;;;;;0.00;0.00;;;20.50;99.90;;;;;;5051698;28;20425;-92
2023/05/21 10:59:35;;;;;;;0.00;0.00;;;20.30;99.90;;;;;;5058417;28;20447;-90
2023/05/21 11:02:01;;;;;;;0.00;0.00;;;20.30;99.90;;;;;;5067296;28;20432;-91
2023/05/21 11:04:28;;;;;;;0.00;0.00;;;20.30;99.90;;;;;;5045854;28;20472;-91
2023/05/21 11:06:55;;;;;;;0.00;0.00;;;20.30;99.90;;;;;;5068800;28;20434;-91
2023/05/21 11:09:20;;;;;;;0.00;0.00;;;20.20;99.90;;;;;;5078742;28;20477;-91
2023/05/21 11:11:51;;;;;;;0.00;0.00;;;20.40;99.90;;;;;;5077687;28;21102;-92
2023/05/21 11:14:38;;;;;;;0.00;0.00;;;20.50;99.90;;;;;;5067266;28;20679;-89
2023/05/21 11:17:37;;;;;;;0.00;0.00;;;20.60;99.90;;;;;;5071276;28;20436;-89
2023/05/21 11:20:10;;;;;;;0.00;0.00;;;20.60;99.90;;;;;;5079434;28;20448;-89
2023/05/21 11:22:37;;;;;;;0.00;0.00;;;20.70;99.90;;;;;;5064754;28;20445;-89
2023/05/21 11:25:03;;;;;;;0.00;0.00;;;20.90;99.90;;;;;;5050923;28;20476;-88
2023/05/21 11:27:34;;;;;;;0.00;0.00;;;20.80;99.90;;;;;;5068368;28;20444;-89
2023/05/21 11:30:07;;;;;;;0.00;0.00;;;21.10;99.90;;;;;;5072872;28;20443;-88
2023/05/21 11:32:39;;;;;;;0.00;0.00;;;21.20;99.90;;;;;;5085790;28;20954;-89
2023/05/21 11:35:05;;;;;;;0.00;0.00;;;21.60;99.90;;;;;;5066941;28;20463;-89
2023/05/21 11:37:33;;;;;;;0.00;0.00;;;22.00;99.90;;;;;;5067203;28;20432;-89
2023/05/21 11:40:24;;;;;;;0.00;0.00;;;21.90;99.90;;;;;;5061630;28;20913;-89
2023/05/21 11:42:54;;;;;;;0.00;0.00;;;21.70;99.90;;;;;;5066941;28;20467;-89
2023/05/21 11:45:27;;;;;;;0.00;0.00;;;22.10;99.90;;;;;;5076242;28;20487;-91
2023/05/21 11:47:54;;;;;;;0.00;0.00;;;22.10;99.90;;;;;;5068868;28;20439;-90
2023/05/21 11:50:20;;;;;;;0.00;0.00;;;22.20;99.90;;;;;;5070297;28;20455;-89
2023/05/21 11:52:47;;;;;;;0.00;0.00;;;22.40;99.90;;;;;;5078116;28;20444;-90
2023/05/21 11:55:14;;;;;;;0.00;0.00;;;22.30;99.90;;;;;;5065676;28;20182;-89
2023/05/21 11:57:41;;;;;;;0.00;0.00;;;22.60;99.90;;;;;;5065501;28;20951;-89
2023/05/21 12:00:14;;;;;;;0.00;0.00;;;22.80;99.90;;;;;;5073227;28;20869;-93
2023/05/21 12:02:48;;;;;;;0.00;0.00;;;22.70;99.90;;;;;;5054195;28;20454;-92
2023/05/21 12:05:14;;;;;;;0.00;0.00;;;22.80;99.90;;;;;;5064584;28;20545;-90
2023/05/21 12:07:40;;;;;;;0.00;0.00;;;23.30;99.90;;;;;;5070243;28;21216;-89
2023/05/21 12:10:06;;;;;;;0.00;0.00;;;23.50;99.90;;;;;;5073176;28;20219;-90
2023/05/21 12:12:32;;;;;;;0.00;0.00;;;23.80;99.90;;;;;;5076486;28;20251;-89
2023/05/21 12:14:58;;;;;;;0.00;0.00;;;23.90;99.90;;;;;;5080007;28;20506;-89
2023/05/21 12:17:25;;;;;;;0.00;0.00;;;24.10;99.90;;;;;;5068960;28;20193;-90
2023/05/21 12:19:52;;;;;;;0.00;0.00;;;24.60;99.90;;;;;;5073649;28;20444;-86
2023/05/21 12:22:18;;;;;;;0.00;0.00;;;24.80;99.90;;;;;;5065174;28;20444;-86
2023/05/21 12:24:44;;;;;;;0.00;0.00;;;24.80;99.90;;;;;;5062961;28;20488;-87
2023/05/21 12:27:12;;;;;;;0.00;0.00;;;24.80;99.90;;;;;;5064094;28;20259;-85
2023/05/21 12:29:39;;;;;;;0.00;0.00;;;24.50;99.90;;;;;;5046819;28;20441;-87
2023/05/21 12:32:07;;;;;;;0.00;0.00;;;24.50;99.90;;;;;;5074098;28;20938;-87
2023/05/21 12:34:47;;;;;;;0.00;0.00;;;24.60;99.90;;;;;;5078394;28;20447;-86
2023/05/21 12:37:26;;;;;;;0.00;0.00;;;24.90;99.90;;;;;;5073750;28;20455;-87
2023/05/21 12:39:54;;;;;;;0.00;0.00;;;25.10;99.90;;;;;;5063419;28;21243;-89
2023/05/21 12:42:31;;;;;;;0.00;0.00;;;25.40;99.90;;;;;;5068580;28;20458;-91
2023/05/21 12:44:57;;;;;;;0.00;0.00;;;25.10;99.90;;;;;;5063385;28;20998;-92
2023/05/21 12:47:25;;;;;;;0.00;0.00;;;25.30;99.90;;;;;;5072034;28;20439;-88
2023/05/21 12:49:59;;;;;;;0.10;0.00;;;25.20;99.90;;;;;;5064024;28;21077;-90